• Join FlightAware (Why Join?)
  • Login
  • US Flag GB Flag 
09:00 EDT


 

Airport Tracker/Info


-or-


 

Live Flight TrackerFlight Track Log ✈ N55TG ✈ 13-Oct-2013 ✈ KART - KSNC

Flight Track Log - Related Links

Times and Time Zones

All times are in EDT time to prevent confusion due to time zone crossing. See the N55TG flight status page for this flight to view local times or setup timezone preferences in your user account.

Time Position Orientation Groundspeed Altitude Reporting Facility
EDT Latitude Longitude Course Direction KTS MPH feet Rate Location/Type
15:40 44.0125 -75.1625 140° Southeast 90 104 5,400  Level Boston Center
15:41 43.9919 -75.1414 144° Southeast 92 106 5,800 360 Climbing Boston Center
15:41 43.9839 -75.1322 141° Southeast 91 105 5,900 480 Climbing Boston Center
15:42 43.9717 -75.1172 139° Southeast 97 112 6,300 480 Climbing Boston Center
15:42 43.9614 -75.1111 157° South 96 110 6,400 360 Climbing Boston Center
15:43 43.9494 -75.0933 133° Southeast 95 109 6,700 360 Climbing Boston Center
15:43 43.9389 -75.0928 178° South 96 110 6,800 240 Climbing Boston Center
15:44 43.9289 -75.0750 128° Southeast 95 109 7,000 300 Climbing Boston Center
15:44 43.9167 -75.0717 169° South 96 110 7,100 360 Climbing Boston Center
15:45 43.3086 -75.0563 140° Southeast  Level Estimated
15:45 43.9044 -75.0481 126° Southeast 102 117 7,400  Level Boston Center
15:45 43.8942 -75.0475 178° South 106 122 7,400  Level Boston Center
15:46 43.8697 -75.0178 139° Southeast 118 136 7,400  Level Boston Center
15:47 43.8453 -74.9908 142° Southeast 123 142 7,400  Level Boston Center
15:48 43.8189 -74.9694 150° Southeast 118 136 7,400  Level Boston Center
15:49 43.7903 -74.9453 149° Southeast 118 136 7,400 -60 Level Boston Center
15:50 43.7675 -74.9269 150° Southeast 117 135 7,300 -120 Descending Boston Center
15:50 43.7636 -74.9183 122° Southeast 118 136 7,300  Level Boston Center
15:51 43.7453 -74.9003 145° Southeast 115 132 7,300  Level Boston Center
15:51 43.7392 -74.8914 134° Southeast 118 136 7,300  Level Boston Center
15:52 43.7147 -74.8617 139° Southeast 118 136 7,300  Level Boston Center
15:53 43.6906 -74.8292 136° Southeast 118 136 7,300  Level Boston Center
15:54 43.6661 -74.7994 139° Southeast 118 136 7,300 -60 Level Boston Center
15:55 43.6397 -74.7697 141° Southeast 122 140 7,200 -120 Descending Boston Center
15:55 43.6397 -74.7667 90° East 118 136 7,200 180 Level Boston Center
15:56 43.6153 -74.7431 145° Southeast 117 135 7,400 180 Climbing Boston Center
15:56 43.6153 -74.7431 145° Southeast 118 136 7,400 -120 Level Boston Center
15:57 43.5906 -74.7161 142° Southeast 114 131 7,300 -120 Descending Boston Center
15:57 43.5908 -74.7133 82° East 118 136 7,300  Level Boston Center
15:58 43.5664 -74.6808 136° Southeast 118 136 7,300 -60 Level Boston Center
15:59 43.5378 -74.6569 149° Southeast 121 139 7,200 -120 Descending Boston Center
15:59 43.5378 -74.6569 149° Southeast 123 142 7,200  Level Boston Center
16:00 43.5089 -74.6331 149° Southeast 121 139 7,200  Level Boston Center
16:00 43.5089 -74.6331 149° Southeast 123 142 7,200  Level Boston Center
16:01 43.4844 -74.6119 148° Southeast 117 135 7,200  Level Boston Center
16:01 43.4803 -74.6092 154° Southeast 123 142 7,200  Level Boston Center
16:02 43.4578 -74.5881 146° Southeast 118 136 7,200 -120 Level Boston Center
16:02 43.4558 -74.5825 116° Southeast 123 142 7,100 -120 Descending Boston Center
16:03 43.4269 -74.5556 146° Southeast 123 142 7,100 -60 Level Boston Center
16:04 43.4006 -74.5261 141° Southeast 123 142 7,000  Descending Boston Center
16:05 43.3717 -74.4994 146° Southeast 123 142 7,100 120 Climbing Boston Center
16:06 43.3472 -74.4731 142° Southeast 123 142 7,300 240 Climbing Boston Center
16:06 43.3431 -74.4700 152° Southeast 114 131 7,400 240 Climbing Boston Center
16:06 43.3389 -74.4669 152° Southeast 112 129 7,400 60 Level Boston Center
16:07 43.3206 -74.4436 137° Southeast 118 136 7,500 60 Climbing Boston Center
16:07 43.3144 -74.4347 133° Southeast 113 130 7,500  Level Boston Center
16:08 43.2961 -74.4169 145° Southeast 118 136 7,500  Level Boston Center
16:08 43.2881 -74.4081 141° Southeast 120 138 7,500  Level Boston Center
16:09 43.2675 -74.3875 144° Southeast 123 142 7,500  Level Boston Center
16:09 43.2614 -74.3789 134° Southeast 122 140 7,500  Level Boston Center
16:10 43.2450 -74.3611 142° Southeast 123 142 7,500  Level Boston Center
16:10 43.2328 -74.3494 145° Southeast 122 140 7,500 -120 Level Boston Center
16:11 43.2142 -74.3261 138° Southeast 123 142 7,400 -120 Descending Boston Center
16:11 43.2061 -74.3200 151° Southeast 123 142 7,400 -120 Level Boston Center
16:12 43.1939 -74.2969 126° Southeast 128 147 7,300 -120 Descending Boston Center
16:12 43.1836 -74.2853 140° Southeast 123 142 7,300  Level Boston Center
16:13 43.1675 -74.2619 133° Southeast 128 147 7,300 60 Level Boston Center
16:13 43.1592 -74.2503 134° Southeast 119 137 7,400  Climbing Boston Center
16:14 43.1447 -74.2386 149° Southeast 123 142 7,300 -120 Descending Boston Center
16:14 43.1347 -74.2239 133° Southeast 117 135 7,300 60 Level Boston Center
16:15 43.1161 -74.2092 150° Southeast 123 142 7,400 60 Climbing Boston Center
16:15 43.1058 -74.2033 157° South 119 137 7,400 -120 Level Boston Center
16:16 43.0914 -74.1858 138° Southeast 123 142 7,300  Descending Boston Center
16:16 43.0792 -74.1769 152° Southeast 118 136 7,400  Climbing Boston Center
16:17 43.0628 -74.1594 142° Southeast 123 142 7,300 -120 Descending Boston Center
16:17 43.0481 -74.1533 163° South 119 137 7,300  Level Boston Center
16:18 43.0358 -74.1389 139° Southeast 123 142 7,300  Level Boston Center
16:18 43.0194 -74.1269 152° Southeast 119 137 7,300  Level Boston Center
16:19 43.0072 -74.1094 134° Southeast 123 142 7,300  Level Boston Center
16:19 42.9969 -74.0981 141° Southeast 119 137 7,300  Level Boston Center
16:20 42.9825 -74.0806 138° Southeast 123 142 7,300  Level Boston Center
16:20 42.9703 -74.0717 152° Southeast 119 137 7,300  Level Boston Center
16:21 42.9558 -74.0514 134° Southeast 123 142 7,300  Level Boston Center
16:21 42.9456 -74.0397 140° Southeast 120 138 7,300  Level Boston Center
16:22 42.9314 -74.0225 138° Southeast 123 142 7,300  Level Boston Center
16:22 42.9189 -74.0108 146° Southeast 120 138 7,300  Level Boston Center
16:23 42.9025 -73.9961 147° Southeast 123 142 7,300  Level Boston Center
16:23 42.8881 -73.9817 144° Southeast 120 138 7,300  Level Boston Center
16:24 42.8797 -73.9731 143° Southeast 123 142 7,300  Level Boston Center
16:24 42.8611 -73.9611 155° Southeast 120 138 7,300  Level Boston Center
16:25 42.8531 -73.9497 134° Southeast 123 142 7,300 60 Level Boston Center
16:25 42.8344 -73.9294 141° Southeast 121 139 7,400 180 Climbing Boston Center
16:26 42.8264 -73.9206 141° Southeast 123 142 7,500 60 Climbing Boston Center
16:27 42.8100 -73.9006 138° Southeast 116 133 7,500 60 Level Boston Center
16:27 42.8017 -73.8917 142° Southeast 123 142 7,600 60 Climbing Boston Center
16:28 42.7853 -73.8689 134° Southeast 123 142 7,600  Level Boston Center
16:28 42.7750 -73.8628 156° South 123 142 7,600  Level Boston Center
16:29 42.7586 -73.8428 138° Southeast 122 140 7,600  Level Boston Center
16:29 42.7503 -73.8311 134° Southeast 123 142 7,600  Level Boston Center
16:30 42.7278 -73.8136 150° Southeast 131 151 7,600  Level Boston Center
16:30 42.7214 -73.8078 146° Southeast 123 142 7,600 60 Level Boston Center
16:31 42.6989 -73.7906 151° Southeast 119 137 7,700  Climbing Boston Center
16:31 42.6906 -73.7847 153° Southeast 123 142 7,600 -120 Descending Boston Center
16:32 42.6700 -73.7617 140° Southeast 126 145 7,600  Level Boston Center
16:32 42.6617 -73.7558 153° Southeast 123 142 7,600 -120 Level Boston Center
16:33 42.6389 -73.7356 147° Southeast 127 146 7,500 -120 Descending Boston Center
16:33 42.6328 -73.7297 145° Southeast 123 142 7,500  Level Boston Center
16:34 42.6081 -73.7094 149° Southeast 125 144 7,500  Level Boston Center
16:34 42.5978 -73.6981 141° Southeast 128 147 7,500 -120 Level Boston Center
16:35 42.5811 -73.6808 143° Southeast 126 145 7,400 -120 Descending Boston Center
16:35 42.5689 -73.6692 145° Southeast 128 147 7,400  Level Boston Center
16:36 42.5522 -73.6547 147° Southeast 126 145 7,400  Level Boston Center
16:36 42.5442 -73.6406 128° Southeast 120 138 7,400  Level Boston Center
16:37 42.5233 -73.6233 149° Southeast 124 143 7,400  Level Boston Center
16:38 42.4967 -73.5975 144° Southeast 123 142 7,400 -60 Level Boston Center
16:39 42.4697 -73.5717 145° Southeast 127 146 7,300 -60 Descending Boston Center
16:40 42.4408 -73.5372 139° Southeast 124 143 7,300  Level Boston Center
16:41 42.4142 -73.5144 148° Southeast 122 140 7,300  Level Boston Center
16:42 42.3872 -73.4858 142° Southeast 123 142 7,400  Climbing Boston Center
16:43 42.3542 -73.4600 150° Southeast 125 144 7,400 -60 Level Boston Center
16:44 42.3253 -73.4369 149° Southeast 127 146 7,300 -120 Descending Boston Center
16:45 42.2919 -73.4139 153° Southeast 127 146 7,200 -180 Descending Boston Center
16:45 42.2775 -73.4025 150° Southeast 129 148 7,100 -300 Descending Boston Center
16:46 42.2608 -73.3911 153° Southeast 129 148 6,900 -300 Descending Boston Center
16:47 42.2278 -73.3625 147° Southeast 129 148 6,700 -300 Descending Boston Center
16:48 42.1947 -73.3369 150° Southeast 130 150 6,300 -540 Descending Boston Center
16:49 42.1636 -73.3083 146° Southeast 134 154 5,600 -600 Descending Boston Center
16:50 42.1347 -73.2772 141° Southeast 131 151 5,100 -540 Descending Boston Center
16:51 42.1100 -73.2433 135° Southeast 120 138 4,600 -660 Descending Boston Center
16:52 42.0811 -73.2092 139° Southeast 123 142 3,800 -600 Descending Boston Center
16:53 42.0603 -73.1811 135° Southeast 115 132 3,400 -360 Descending Boston Center
16:54 42.0356 -73.1500 137° Southeast 110 127 3,100 -240 Descending Boston Center
16:55 42.0189 -73.1275 135° Southeast 108 124 3,000 -60 Descending Boston Center
16:56 41.9942 -73.0994 140° Southeast 108 124 3,000  Level Boston Center
16:57 41.9733 -73.0767 141° Southeast 104 120 3,000  Level Boston Center
16:58 41.9528 -73.0542 141° Southeast 101 116 3,000  Level Boston Center
16:59 41.9278 -73.0261 140° Southeast 106 122 3,000 -60 Level Boston Center
17:00 41.9050 -73.0036 144° Southeast 107 123 2,900 -120 Descending Boston Center
17:01 41.8781 -72.9839 151° Southeast 107 123 2,800 -60 Descending Boston Center
17:02 41.8531 -72.9558 140° Southeast 105 121 2,800  Level Boston Center
17:03 41.8325 -72.9361 144° Southeast 106 122 2,800  Level Boston Center
17:04 41.8056 -72.9164 151° Southeast 105 121 2,800 -60 Level Boston Center
17:05 41.7806 -72.8911 143° Southeast 106 122 2,700 -120 Descending Boston Center
17:06 41.7578 -72.8686 144° Southeast 106 122 2,600 -60 Descending Boston Center
17:07 41.7328 -72.8461 146° Southeast 106 122 2,600  Level Boston Center
17:08 41.7119 -72.8211 138° Southeast 103 119 2,600 -60 Level Boston Center
17:09 41.6892 -72.8014 147° Southeast 100 115 2,500 -60 Descending Boston Center
17:10 41.6642 -72.7875 157° South 103 119 2,500 -60 Level Boston Center
17:11 41.6392 -72.7622 143° Southeast 97 112 2,400 -60 Descending Boston Center
17:12 41.6164 -72.7456 151° Southeast 100 115 2,400 -60 Level Boston Center
17:13 41.5850 -72.7314 161° South 108 124 2,300 -60 Descending Boston Center
17:14 41.5622 -72.7092 144° Southeast 106 122 2,300 -60 Level Boston Center
17:15 41.5372 -72.6842 143° Southeast 106 122 2,200  Descending Boston Center
17:16 41.5186 -72.6564 132° Southeast 104 120 2,300 60 Climbing Boston Center
17:17 41.4936 -72.6314 143° Southeast 106 122 2,400 60 Climbing Boston Center
17:19 41.4632 -72.5863 132° Southeast  Level FlightAware Approximate
17:26 41.3833 -72.5000 143° Southeast  Level FlightAware Approximate
17:27 41.3837 -72.5058 143° Southeast  Level Estimated
17:28 41.3833 -72.5000 143° Southeast  Level FlightAware Approximate
17:29 41.3837 -72.5058 143° Southeast  Level Estimated